createdAt,value
2022-11-27T00:02:00.253Z,24.00
2022-11-27T00:07:03.265Z,23.90
2022-11-27T00:12:06.741Z,23.90
2022-11-27T00:17:11.076Z,23.80
2022-11-27T00:22:14.017Z,23.70
2022-11-27T00:27:17.080Z,23.60
2022-11-27T00:32:21.485Z,23.50
2022-11-27T00:37:24.482Z,23.40
2022-11-27T00:42:27.509Z,23.40
2022-11-27T00:47:31.840Z,23.40
2022-11-27T00:52:34.833Z,23.30
2022-11-27T00:57:37.857Z,23.40
2022-11-27T01:02:42.297Z,23.40
2022-11-27T01:07:45.383Z,23.40
2022-11-27T01:12:50.822Z,23.40
2022-11-27T01:17:55.258Z,23.30
2022-11-27T01:22:58.229Z,23.30
2022-11-27T01:28:01.214Z,23.10
2022-11-27T01:33:05.922Z,23.10
2022-11-27T01:38:09.000Z,23.00
2022-11-27T01:43:15.450Z,22.90
2022-11-27T01:48:19.905Z,22.80
2022-11-27T01:53:23.043Z,22.80
2022-11-27T01:58:28.884Z,22.80
2022-11-27T02:03:33.748Z,22.70
2022-11-27T02:08:36.786Z,22.60
2022-11-27T02:13:44.644Z,22.60
2022-11-27T02:18:57.229Z,22.50
2022-11-27T02:24:39.134Z,22.40
2022-11-27T02:29:46.366Z,22.40
2022-11-27T02:34:55.977Z,22.30
2022-11-27T02:40:06.042Z,22.20
2022-11-27T02:45:13.096Z,22.20
2022-11-27T02:50:20.896Z,22.10
2022-11-27T02:55:28.052Z,22.00
2022-11-27T03:00:33.692Z,22.00
2022-11-27T03:05:42.553Z,22.00
2022-11-27T03:10:51.117Z,21.90
2022-11-27T03:16:11.479Z,21.80
2022-11-27T03:21:28.337Z,21.80
2022-11-27T03:26:32.525Z,21.70
2022-11-27T03:31:37.087Z,21.70
2022-11-27T03:36:40.180Z,21.60
2022-11-27T03:41:52.109Z,21.60
2022-11-27T03:47:06.740Z,21.50
2022-11-27T03:52:16.790Z,21.40
2022-11-27T03:57:24.313Z,21.40
2022-11-27T04:02:32.565Z,21.30
2022-11-27T04:07:35.693Z,21.30
2022-11-27T04:12:38.867Z,21.30
2022-11-27T04:17:43.186Z,21.20
2022-11-27T04:22:46.197Z,21.20
2022-11-27T04:27:49.195Z,21.20
2022-11-27T04:32:53.573Z,21.10
2022-11-27T04:37:58.497Z,21.00
2022-11-27T04:43:01.472Z,21.00
2022-11-27T04:48:06.899Z,21.00
2022-11-27T04:53:09.917Z,21.00
2022-11-27T04:58:13.016Z,20.90
2022-11-27T05:03:17.465Z,20.80
2022-11-27T05:08:20.479Z,20.90
2022-11-27T05:13:23.435Z,20.80
2022-11-27T05:18:28.083Z,20.70
2022-11-27T05:23:32.092Z,20.70
2022-11-27T05:28:35.064Z,20.70
2022-11-27T05:33:39.469Z,20.70
2022-11-27T05:38:42.870Z,20.70
2022-11-27T05:43:46.055Z,20.60
2022-11-27T05:48:50.830Z,20.60
2022-11-27T05:53:53.814Z,20.60
2022-11-27T05:58:56.820Z,20.60
2022-11-27T06:04:02.191Z,20.50
2022-11-27T06:09:10.923Z,20.50
2022-11-27T06:14:15.701Z,20.50
2022-11-27T06:19:20.086Z,20.50
2022-11-27T06:24:23.252Z,20.40
2022-11-27T06:29:26.251Z,20.40
2022-11-27T06:34:30.612Z,20.30
2022-11-27T06:39:33.796Z,20.30
2022-11-27T06:44:36.836Z,20.30
2022-11-27T06:49:41.149Z,20.20
2022-11-27T06:54:44.140Z,20.20
2022-11-27T06:59:47.197Z,20.20
2022-11-27T07:04:51.597Z,20.20
2022-11-27T07:09:54.566Z,20.10
2022-11-27T07:15:00.584Z,20.10
2022-11-27T07:20:08.945Z,20.10
2022-11-27T07:25:11.996Z,20.10
2022-11-27T07:30:15.716Z,20.10
2022-11-27T07:35:20.273Z,20.10
2022-11-27T07:40:23.420Z,20.10
2022-11-27T07:45:26.720Z,20.00
2022-11-27T07:50:31.283Z,20.00
2022-11-27T07:55:34.366Z,20.00
2022-11-27T08:00:37.631Z,20.00
2022-11-27T08:05:41.996Z,20.00
2022-11-27T08:10:44.997Z,19.90
2022-11-27T08:15:48.182Z,19.90
2022-11-27T08:20:52.561Z,20.00
2022-11-27T08:25:55.666Z,20.00
2022-11-27T08:30:59.252Z,20.10
2022-11-27T08:36:04.046Z,20.20
2022-11-27T08:41:08.457Z,20.20
2022-11-27T08:46:12.578Z,20.40
2022-11-27T08:51:17.365Z,20.70
2022-11-27T08:56:22.513Z,21.10
2022-11-27T09:01:28.425Z,21.60
2022-11-27T09:06:34.766Z,22.10
2022-11-27T09:11:37.981Z,22.60
2022-11-27T09:16:41.010Z,23.00
2022-11-27T09:21:45.394Z,23.40
2022-11-27T09:26:48.425Z,23.80
2022-11-27T09:31:51.457Z,24.10
2022-11-27T09:36:55.889Z,24.30
2022-11-27T09:42:01.835Z,24.40
2022-11-27T09:47:13.136Z,24.70
2022-11-27T09:52:23.430Z,24.80
2022-11-27T09:57:32.550Z,24.90
2022-11-27T10:02:36.595Z,25.00
2022-11-27T10:08:06.307Z,25.10
2022-11-27T10:13:24.287Z,25.30
2022-11-27T10:18:35.421Z,25.30
2022-11-27T10:23:48.197Z,25.30
2022-11-27T10:29:00.746Z,25.30
2022-11-27T10:34:06.361Z,25.40
2022-11-27T10:39:23.373Z,25.50
2022-11-27T10:44:31.252Z,25.60
2022-11-27T10:49:36.492Z,25.60
2022-11-27T10:54:41.293Z,25.50
2022-11-27T10:59:49.861Z,25.60
2022-11-27T11:05:16.268Z,25.70
2022-11-27T11:16:44.310Z,25.60
2022-11-27T11:21:47.452Z,25.70
2022-11-27T11:26:52.259Z,25.70
2022-11-27T11:31:59.383Z,25.70
2022-11-27T11:47:18.324Z,25.00
2022-11-27T11:52:40.033Z,24.70
2022-11-27T11:57:55.070Z,24.60
2022-11-27T12:03:38.990Z,24.50
2022-11-27T12:08:55.792Z,24.40
2022-11-27T12:14:15.716Z,24.40
2022-11-27T12:19:39.421Z,24.30
2022-11-27T12:24:53.960Z,24.30
2022-11-27T12:30:16.966Z,24.20
2022-11-27T12:35:32.591Z,24.20
2022-11-27T12:59:49.970Z,24.20
2022-11-27T13:12:41.863Z,24.00
2022-11-27T13:17:45.146Z,23.90
2022-11-27T13:22:47.943Z,23.80
2022-11-27T13:36:56.629Z,23.70
2022-11-27T13:42:05.638Z,23.60
2022-11-27T13:47:12.446Z,23.60
2022-11-27T13:52:19.300Z,23.50
2022-11-27T13:57:22.784Z,23.40
2022-11-27T14:02:26.893Z,23.50
2022-11-27T14:07:41.174Z,23.30
2022-11-27T14:12:54.460Z,23.30
2022-11-27T14:18:09.438Z,23.20
2022-11-27T14:23:14.088Z,23.10
2022-11-27T14:28:21.651Z,23.10
2022-11-27T14:33:26.747Z,23.10
2022-11-27T14:38:33.516Z,23.00
2022-11-27T14:43:36.621Z,22.90
2022-11-27T14:48:45.652Z,23.00
2022-11-27T14:53:53.076Z,23.00
2022-11-27T14:58:56.934Z,23.00
2022-11-27T15:04:00.828Z,23.10
2022-11-27T15:09:30.288Z,23.30
2022-11-27T15:14:29.894Z,23.30
2022-11-27T15:19:36.960Z,23.30
2022-11-27T15:24:42.005Z,23.30
2022-11-27T15:30:00.940Z,23.40
2022-11-27T15:35:14.622Z,23.50
2022-11-27T15:40:29.109Z,23.60
2022-11-27T15:45:33.688Z,23.80
2022-11-27T15:50:36.710Z,23.80
2022-11-27T15:55:41.142Z,24.00
2022-11-27T16:00:44.254Z,24.00
2022-11-27T16:05:47.278Z,24.10
2022-11-27T16:10:51.613Z,24.20
2022-11-27T16:15:54.606Z,24.20
2022-11-27T16:20:57.766Z,24.20
2022-11-27T16:26:03.259Z,24.20
2022-11-27T16:31:10.718Z,24.20
2022-11-27T16:36:15.735Z,24.20
2022-11-27T16:41:20.939Z,24.20
2022-11-27T16:46:27.068Z,24.10
2022-11-27T16:51:32.552Z,24.10
2022-11-27T16:56:38.518Z,24.00
2022-11-27T17:01:43.173Z,24.00
2022-11-27T17:06:47.264Z,24.10
2022-11-27T17:11:51.970Z,24.20
2022-11-27T17:16:55.178Z,24.30
2022-11-27T17:21:58.328Z,24.40
2022-11-27T17:27:03.384Z,24.50
2022-11-27T17:32:09.666Z,24.60
2022-11-27T17:37:13.390Z,24.60
2022-11-27T17:42:22.422Z,24.60
2022-11-27T17:47:25.926Z,24.60
2022-11-27T17:52:30.173Z,24.60
2022-11-27T17:57:34.906Z,24.60
2022-11-27T18:02:37.987Z,24.70
2022-11-27T18:07:41.077Z,24.80
2022-11-27T18:12:45.889Z,24.80
2022-11-27T18:17:48.852Z,24.90
2022-11-27T18:22:51.812Z,24.90
2022-11-27T18:27:57.984Z,24.90
2022-11-27T18:33:03.429Z,25.00
2022-11-27T18:38:06.566Z,25.10
2022-11-27T18:43:11.374Z,25.10
2022-11-27T18:48:14.415Z,25.10
2022-11-27T18:53:17.528Z,25.10
2022-11-27T18:58:21.841Z,25.20
2022-11-27T19:03:24.953Z,25.20
2022-11-27T19:08:28.110Z,25.30
2022-11-27T19:13:33.354Z,25.30
2022-11-27T19:18:37.533Z,25.30
2022-11-27T19:23:40.763Z,25.30
2022-11-27T19:28:45.756Z,25.40
2022-11-27T19:33:52.825Z,25.40
2022-11-27T19:38:58.009Z,25.40
2022-11-27T19:44:04.659Z,25.40
2022-11-27T19:49:09.601Z,25.50
2022-11-27T19:54:13.982Z,25.50
2022-11-27T19:59:24.230Z,25.40
2022-11-27T20:04:28.696Z,25.40
2022-11-27T20:09:31.744Z,25.40
2022-11-27T20:14:37.274Z,25.40
2022-11-27T20:19:40.867Z,25.40
2022-11-27T20:24:58.421Z,25.40
2022-11-27T20:30:10.157Z,25.40
2022-11-27T20:35:13.270Z,25.40
2022-11-27T20:40:16.599Z,25.30
2022-11-27T20:45:21.077Z,25.30
2022-11-27T20:50:24.083Z,25.20
2022-11-27T20:55:27.626Z,25.20
2022-11-27T21:00:32.138Z,25.10
2022-11-27T21:05:35.306Z,25.10
2022-11-27T21:10:38.458Z,25.10
2022-11-27T21:15:48.055Z,25.10
2022-11-27T21:20:51.191Z,25.00
2022-11-27T21:25:54.359Z,25.00
2022-11-27T21:31:07.326Z,24.90
2022-11-27T21:36:10.701Z,24.80
2022-11-27T21:41:14.009Z,24.50
2022-11-27T21:46:22.453Z,23.80
2022-11-27T21:51:28.833Z,23.70
2022-11-27T21:56:34.212Z,23.90
2022-11-27T22:01:39.159Z,24.00
2022-11-27T22:06:44.389Z,24.10
2022-11-27T22:11:48.443Z,24.10
2022-11-27T22:16:52.926Z,24.10
2022-11-27T22:21:55.961Z,24.10
2022-11-27T22:26:58.982Z,24.10
2022-11-27T22:32:03.427Z,24.00
2022-11-27T22:37:06.724Z,24.00
2022-11-27T22:42:09.755Z,24.00
2022-11-27T22:47:14.118Z,23.90
2022-11-27T22:52:17.125Z,23.80
2022-11-27T22:57:20.150Z,23.70
2022-11-27T23:02:24.530Z,23.70
2022-11-27T23:07:27.564Z,23.60
2022-11-27T23:12:30.580Z,23.60
2022-11-27T23:17:34.957Z,23.50
2022-11-27T23:22:39.009Z,23.40
2022-11-27T23:27:42.246Z,23.40
2022-11-27T23:32:46.659Z,23.30
2022-11-27T23:37:49.730Z,23.30
2022-11-27T23:42:52.872Z,23.20
2022-11-27T23:47:57.237Z,23.10
2022-11-27T23:53:00.273Z,23.00
2022-11-27T23:58:03.294Z,23.00
